createdAt,value
2022-10-26T00:01:12.623Z,99510.47
2022-10-26T00:06:19.288Z,99513.63
2022-10-26T00:11:23.219Z,99519.56
2022-10-26T00:16:29.097Z,99498.38
2022-10-26T00:21:34.210Z,99516.16
2022-10-26T00:26:38.266Z,99509.78
2022-10-26T00:31:42.227Z,99524.56
2022-10-26T00:36:47.026Z,99512.03
2022-10-26T00:41:50.804Z,99506.06
2022-10-26T00:46:54.583Z,99502.94
2022-10-26T00:51:59.866Z,99505.00
2022-10-26T00:57:03.722Z,99499.72
2022-10-26T01:02:07.777Z,99504.25
2022-10-26T01:07:13.335Z,99486.97
2022-10-26T01:12:17.155Z,99478.38
2022-10-26T01:17:40.147Z,99497.22
2022-10-26T01:22:53.603Z,99491.44
2022-10-26T01:27:58.097Z,99487.66
2022-10-26T01:33:21.795Z,99491.72
2022-10-26T01:38:32.339Z,99502.31
2022-10-26T01:43:40.221Z,99490.81
2022-10-26T01:48:47.409Z,99504.50
2022-10-26T01:53:50.829Z,99500.28
2022-10-26T01:59:10.131Z,99490.75
2022-10-26T02:04:27.299Z,99495.28
2022-10-26T02:09:40.281Z,99504.28
2022-10-26T02:14:51.100Z,99499.34
2022-10-26T02:20:00.837Z,99494.97
2022-10-26T02:25:09.538Z,99495.94
2022-10-26T02:30:14.773Z,99495.34
2022-10-26T02:35:23.736Z,99492.31
2022-10-26T02:40:29.751Z,99494.44
2022-10-26T02:45:38.758Z,99497.84
2022-10-26T02:50:52.517Z,99492.97
2022-10-26T02:55:56.316Z,99492.81
2022-10-26T03:01:00.991Z,99489.03
2022-10-26T03:06:06.314Z,99483.31
2022-10-26T03:11:10.498Z,99494.59
2022-10-26T03:16:14.312Z,99495.00
2022-10-26T03:21:19.567Z,99491.31
2022-10-26T03:26:23.256Z,99488.13
2022-10-26T03:31:27.143Z,99484.75
2022-10-26T03:36:33.128Z,99493.22
2022-10-26T03:41:36.897Z,99491.91
2022-10-26T03:46:40.640Z,99484.38
2022-10-26T03:51:45.793Z,99485.56
2022-10-26T03:56:52.661Z,99488.00
2022-10-26T04:01:58.892Z,99489.16
2022-10-26T04:07:04.021Z,99500.28
2022-10-26T04:12:08.319Z,99498.53
2022-10-26T04:17:12.129Z,99492.47
2022-10-26T04:22:17.578Z,99502.19
2022-10-26T04:27:21.371Z,99499.50
2022-10-26T04:32:24.794Z,99501.50
2022-10-26T04:37:29.593Z,99508.09
2022-10-26T04:42:37.763Z,99506.84
2022-10-26T04:47:41.708Z,99493.97
2022-10-26T04:52:52.228Z,99509.47
2022-10-26T04:57:58.646Z,99506.56
2022-10-26T05:03:06.721Z,99518.44
2022-10-26T05:08:11.832Z,99489.59
2022-10-26T05:13:15.387Z,99500.41
2022-10-26T05:18:19.160Z,99500.06
2022-10-26T05:23:24.591Z,99499.34
2022-10-26T05:28:28.398Z,99499.00
2022-10-26T05:33:31.777Z,99499.84
2022-10-26T05:38:36.955Z,99499.47
2022-10-26T05:43:40.426Z,99495.38
2022-10-26T05:48:44.082Z,99496.34
2022-10-26T05:53:49.993Z,99504.63
2022-10-26T05:58:54.305Z,99500.38
2022-10-26T06:04:12.168Z,99503.94
2022-10-26T06:09:17.841Z,99504.38
2022-10-26T06:14:21.743Z,99498.19
2022-10-26T06:19:34.114Z,99501.56
2022-10-26T06:24:46.374Z,99497.66
2022-10-26T06:29:59.544Z,99496.00
2022-10-26T06:35:16.577Z,99493.53
2022-10-26T06:40:22.880Z,99500.69
2022-10-26T06:45:27.274Z,99506.72
2022-10-26T06:50:39.294Z,99496.97
2022-10-26T06:55:46.129Z,99493.13
2022-10-26T07:00:53.445Z,99512.13
2022-10-26T07:05:57.167Z,99509.16
2022-10-26T07:11:02.276Z,99512.06
2022-10-26T07:16:06.450Z,99509.72
2022-10-26T07:21:10.912Z,99508.69
2022-10-26T07:26:16.235Z,99507.59
2022-10-26T07:31:20.018Z,99513.50
2022-10-26T07:36:24.043Z,99505.41
2022-10-26T07:41:29.193Z,99507.03
2022-10-26T07:46:33.150Z,99522.41
2022-10-26T07:51:37.288Z,99503.59
2022-10-26T07:56:42.412Z,99504.84
2022-10-26T08:01:46.312Z,99509.69
2022-10-26T08:06:50.169Z,99510.69
2022-10-26T08:11:55.248Z,99505.72
2022-10-26T08:17:00.096Z,99501.75
2022-10-26T08:22:03.799Z,99510.22
2022-10-26T08:27:09.092Z,99511.06
2022-10-26T08:32:13.099Z,99501.84
2022-10-26T08:37:16.638Z,99499.09
2022-10-26T08:42:26.558Z,99494.25
2022-10-26T08:47:34.491Z,99494.47
2022-10-26T08:52:45.360Z,99487.59
2022-10-26T08:57:52.143Z,99496.13
2022-10-26T09:02:55.978Z,99495.75
2022-10-26T09:08:09.332Z,99494.38
2022-10-26T09:13:26.042Z,99491.66
2022-10-26T09:18:39.736Z,99493.56
2022-10-26T09:23:54.813Z,99499.88
2022-10-26T09:29:02.790Z,99511.94
2022-10-26T09:34:09.349Z,99494.47
2022-10-26T09:39:20.896Z,99509.19
2022-10-26T09:44:29.811Z,99492.66
2022-10-26T09:49:42.456Z,99512.78
2022-10-26T09:54:46.444Z,99499.06
2022-10-26T09:59:53.099Z,99516.03
2022-10-26T10:04:56.491Z,99511.81
2022-10-26T10:10:09.714Z,99504.25
2022-10-26T10:15:22.153Z,99505.31
2022-10-26T10:20:32.522Z,99507.84
2022-10-26T10:25:38.198Z,99501.47
2022-10-26T10:30:54.778Z,99506.91
2022-10-26T10:36:02.461Z,99504.06
2022-10-26T10:41:07.713Z,99502.53
2022-10-26T10:46:20.361Z,99504.72
2022-10-26T10:51:27.261Z,99502.47
2022-10-26T10:56:36.174Z,99494.94
2022-10-26T11:01:46.766Z,99499.09
2022-10-26T11:06:51.939Z,99495.50
2022-10-26T11:11:58.481Z,99499.19
2022-10-26T11:17:12.588Z,99491.41
2022-10-26T11:22:20.139Z,99495.63
2022-10-26T11:27:29.631Z,99490.47
2022-10-26T11:32:42.925Z,99496.69
2022-10-26T11:37:50.000Z,99492.44
2022-10-26T11:43:03.283Z,99487.72
2022-10-26T11:48:18.539Z,99493.59
2022-10-26T11:53:29.269Z,99490.31
2022-10-26T11:58:34.470Z,99490.09
2022-10-26T12:03:47.097Z,99477.28
2022-10-26T12:08:59.527Z,99480.28
2022-10-26T12:14:08.621Z,99475.22
2022-10-26T12:19:20.291Z,99484.16
2022-10-26T12:24:28.974Z,99479.13
2022-10-26T12:29:41.728Z,99472.22
2022-10-26T12:35:26.407Z,99477.53
2022-10-26T12:40:44.948Z,99480.72
2022-10-26T12:46:09.529Z,99479.75
2022-10-26T12:51:47.629Z,99476.53
2022-10-26T12:56:56.862Z,99456.63
2022-10-26T13:02:36.859Z,99475.44
2022-10-26T13:07:43.254Z,99458.97
2022-10-26T13:12:50.159Z,99470.91
2022-10-26T13:18:03.307Z,99469.03
2022-10-26T13:23:20.931Z,99466.59
2022-10-26T13:28:43.716Z,99469.25
2022-10-26T13:33:48.711Z,99470.84
2022-10-26T13:38:54.797Z,99463.28
2022-10-26T13:44:00.348Z,99478.63
2022-10-26T13:49:10.380Z,99470.63
2022-10-26T13:54:25.103Z,99471.41
2022-10-26T13:59:32.735Z,99463.19
2022-10-26T14:04:36.143Z,99480.72
2022-10-26T14:09:43.605Z,99481.72
2022-10-26T14:14:47.477Z,99486.03
2022-10-26T14:19:53.452Z,99467.91
2022-10-26T14:24:59.911Z,99489.19
2022-10-26T14:30:21.545Z,99491.72
2022-10-26T14:35:29.933Z,99491.03
2022-10-26T14:40:37.519Z,99491.53
2022-10-26T14:45:48.663Z,99491.22
2022-10-26T14:51:03.923Z,99494.41
2022-10-26T14:56:25.389Z,99497.84
2022-10-26T15:01:35.739Z,99496.97
2022-10-26T15:06:47.876Z,99502.09
2022-10-26T15:11:53.058Z,99493.31
2022-10-26T15:16:59.419Z,99507.28
2022-10-26T15:22:03.162Z,99494.47
2022-10-26T15:27:15.247Z,99505.00
2022-10-26T15:32:23.144Z,99503.28
2022-10-26T15:37:26.593Z,99507.22
2022-10-26T15:42:31.970Z,99499.31
2022-10-26T15:47:36.062Z,99505.47
2022-10-26T15:52:39.821Z,99510.66
2022-10-26T15:57:45.458Z,99505.88
2022-10-26T16:02:48.814Z,99506.75
2022-10-26T16:07:53.071Z,99506.94
2022-10-26T16:12:59.366Z,99510.38
2022-10-26T16:18:02.996Z,99518.03
2022-10-26T16:23:06.863Z,99501.06
2022-10-26T16:28:13.562Z,99502.22
2022-10-26T16:33:17.036Z,99505.91
2022-10-26T16:38:20.750Z,99506.69
2022-10-26T16:43:25.841Z,99512.03
2022-10-26T16:48:29.693Z,99509.47
2022-10-26T16:53:33.130Z,99503.19
2022-10-26T16:58:38.837Z,99505.06
2022-10-26T17:03:42.211Z,99506.81
2022-10-26T17:08:46.341Z,99503.41
2022-10-26T17:13:55.191Z,99502.34
2022-10-26T17:18:59.048Z,99492.38
2022-10-26T17:24:04.171Z,99494.09
2022-10-26T17:34:17.991Z,99482.91
2022-10-26T17:39:21.907Z,99485.31
2022-10-26T17:44:26.982Z,99484.41
2022-10-26T17:49:35.091Z,99479.84
2022-10-26T17:54:39.476Z,99473.56
2022-10-26T17:59:45.981Z,99484.13
2022-10-26T18:05:05.201Z,99484.38
2022-10-26T18:10:33.259Z,99474.09
2022-10-26T18:15:55.043Z,99480.63
2022-10-26T18:21:02.700Z,99477.91
2022-10-26T18:26:11.451Z,99475.69
2022-10-26T18:31:21.233Z,99486.78
2022-10-26T18:36:24.989Z,99488.47
2022-10-26T18:41:29.353Z,99489.91
2022-10-26T18:46:40.876Z,99490.38
2022-10-26T18:51:44.905Z,99481.59
2022-10-26T18:56:48.604Z,99489.00
2022-10-26T19:01:53.998Z,99495.31
2022-10-26T19:06:57.789Z,99495.34
2022-10-26T19:12:03.760Z,99498.59
2022-10-26T19:17:09.472Z,99500.19
2022-10-26T19:22:13.208Z,99504.44
2022-10-26T19:32:23.154Z,99502.31
2022-10-26T19:37:28.479Z,99498.94
2022-10-26T19:42:32.073Z,99501.56
2022-10-26T19:47:37.568Z,99496.06
2022-10-26T19:52:41.384Z,99506.72
2022-10-26T19:57:46.424Z,99490.72
2022-10-26T20:02:51.447Z,99482.28
2022-10-26T20:07:55.453Z,99484.03
2022-10-26T20:12:59.011Z,99476.38
2022-10-26T20:18:04.454Z,99480.16
2022-10-26T20:23:08.644Z,99479.41
2022-10-26T20:28:12.507Z,99477.16
2022-10-26T20:33:17.489Z,99474.41
2022-10-26T20:38:21.778Z,99480.00
2022-10-26T20:43:25.793Z,99483.25
2022-10-26T20:48:31.956Z,99478.38
2022-10-26T20:53:37.146Z,99483.81
2022-10-26T20:58:42.655Z,99485.53
2022-10-26T21:03:47.535Z,99471.59
2022-10-26T21:08:51.410Z,99464.19
2022-10-26T21:13:55.978Z,99467.47
2022-10-26T21:19:01.772Z,99457.97
2022-10-26T21:24:05.374Z,99470.84
2022-10-26T21:29:09.138Z,99477.16
2022-10-26T21:34:13.848Z,99470.25
2022-10-26T21:39:17.484Z,99461.91
2022-10-26T21:44:40.051Z,99468.59
2022-10-26T21:49:46.184Z,99429.84
2022-10-26T21:54:49.647Z,99452.53
2022-10-26T21:59:53.338Z,99456.25
2022-10-26T22:04:58.064Z,99454.19
2022-10-26T22:10:15.180Z,99449.16
2022-10-26T22:15:18.907Z,99450.03
2022-10-26T22:20:24.014Z,99452.19
2022-10-26T22:25:27.794Z,99441.97
2022-10-26T22:30:31.534Z,99441.19
2022-10-26T22:35:36.374Z,99448.63
2022-10-26T22:40:40.170Z,99442.34
2022-10-26T22:45:43.984Z,99449.69
2022-10-26T22:50:49.518Z,99446.72
2022-10-26T22:55:53.292Z,99444.00
2022-10-26T23:01:03.361Z,99437.41
2022-10-26T23:06:11.130Z,99427.72
2022-10-26T23:11:16.646Z,99431.84
2022-10-26T23:16:20.501Z,99435.75
2022-10-26T23:26:35.221Z,99431.44
2022-10-26T23:31:38.784Z,99421.94
2022-10-26T23:36:43.519Z,99416.19
2022-10-26T23:41:47.146Z,99418.63
2022-10-26T23:46:50.924Z,99416.22
2022-10-26T23:51:56.026Z,99414.41
2022-10-26T23:56:59.981Z,99420.31
